sensor_id;sensor_type;location;lat;lon;timestamp;temperature;humidity
39889;DHT22;25563;50.844;4.308;2024-01-25T00:00:18;11.10;99.90
39889;DHT22;25563;50.844;4.308;2024-01-25T00:02:44;11.10;99.90
39889;DHT22;25563;50.844;4.308;2024-01-25T00:05:10;11.10;99.90
39889;DHT22;25563;50.844;4.308;2024-01-25T00:07:44;10.90;99.90
39889;DHT22;25563;50.844;4.308;2024-01-25T00:10:12;10.80;99.90
39889;DHT22;25563;50.844;4.308;2024-01-25T00:12:38;11.00;99.90
39889;DHT22;25563;50.844;4.308;2024-01-25T00:15:05;10.80;99.90
39889;DHT22;25563;50.844;4.308;2024-01-25T00:17:31;10.90;99.90
39889;DHT22;25563;50.844;4.308;2024-01-25T00:19:57;11.00;99.90
39889;DHT22;25563;50.844;4.308;2024-01-25T00:22:22;11.40;99.90
39889;DHT22;25563;50.844;4.308;2024-01-25T00:24:48;10.90;99.90
39889;DHT22;25563;50.844;4.308;2024-01-25T00:27:18;10.70;99.90
39889;DHT22;25563;50.844;4.308;2024-01-25T00:29:44;10.50;99.90
39889;DHT22;25563;50.844;4.308;2024-01-25T00:32:10;10.60;99.90
39889;DHT22;25563;50.844;4.308;2024-01-25T00:34:36;10.30;99.90
39889;DHT22;25563;50.844;4.308;2024-01-25T00:37:02;9.90;99.90
39889;DHT22;25563;50.844;4.308;2024-01-25T00:39:28;10.30;99.90
39889;DHT22;25563;50.844;4.308;2024-01-25T00:41:55;10.60;99.90
39889;DHT22;25563;50.844;4.308;2024-01-25T00:44:26;10.70;99.90
39889;DHT22;25563;50.844;4.308;2024-01-25T00:46:53;10.60;99.90
39889;DHT22;25563;50.844;4.308;2024-01-25T00:49:19;10.10;99.90
39889;DHT22;25563;50.844;4.308;2024-01-25T00:51:47;10.70;99.90
39889;DHT22;25563;50.844;4.308;2024-01-25T00:54:13;10.60;99.90
39889;DHT22;25563;50.844;4.308;2024-01-25T00:56:39;10.50;99.90
39889;DHT22;25563;50.844;4.308;2024-01-25T00:59:06;10.40;99.90
39889;DHT22;25563;50.844;4.308;2024-01-25T01:01:32;9.90;99.90
39889;DHT22;25563;50.844;4.308;2024-01-25T01:04:01;9.10;99.90
39889;DHT22;25563;50.844;4.308;2024-01-25T01:06:27;10.30;99.90
39889;DHT22;25563;50.844;4.308;2024-01-25T01:08:53;10.40;99.90
39889;DHT22;25563;50.844;4.308;2024-01-25T01:11:18;10.20;99.90
39889;DHT22;25563;50.844;4.308;2024-01-25T01:13:44;11.00;99.90
39889;DHT22;25563;50.844;4.308;2024-01-25T01:16:13;10.70;99.90
39889;DHT22;25563;50.844;4.308;2024-01-25T01:18:41;10.60;99.90
39889;DHT22;25563;50.844;4.308;2024-01-25T01:21:08;10.60;99.90
39889;DHT22;25563;50.844;4.308;2024-01-25T01:23:34;10.50;99.90
39889;DHT22;25563;50.844;4.308;2024-01-25T01:26:01;10.30;99.90
39889;DHT22;25563;50.844;4.308;2024-01-25T01:28:26;10.20;99.90
39889;DHT22;25563;50.844;4.308;2024-01-25T01:30:52;10.10;99.90
39889;DHT22;25563;50.844;4.308;2024-01-25T01:33:17;10.10;99.90
39889;DHT22;25563;50.844;4.308;2024-01-25T01:35:43;10.00;99.90
39889;DHT22;25563;50.844;4.308;2024-01-25T01:38:12;10.10;99.90
39889;DHT22;25563;50.844;4.308;2024-01-25T01:40:38;10.20;99.90
39889;DHT22;25563;50.844;4.308;2024-01-25T01:43:04;10.20;99.90
39889;DHT22;25563;50.844;4.308;2024-01-25T01:45:29;9.60;99.90
39889;DHT22;25563;50.844;4.308;2024-01-25T01:47:55;9.20;99.90
39889;DHT22;25563;50.844;4.308;2024-01-25T01:50:21;10.00;99.90
39889;DHT22;25563;50.844;4.308;2024-01-25T01:52:47;10.00;99.90
39889;DHT22;25563;50.844;4.308;2024-01-25T01:55:14;9.80;99.90
39889;DHT22;25563;50.844;4.308;2024-01-25T01:57:42;9.60;99.90
39889;DHT22;25563;50.844;4.308;2024-01-25T02:00:08;9.50;99.90
39889;DHT22;25563;50.844;4.308;2024-01-25T02:02:34;9.90;99.90
39889;DHT22;25563;50.844;4.308;2024-01-25T02:05:01;10.10;99.90
39889;DHT22;25563;50.844;4.308;2024-01-25T02:07:27;9.70;99.90
39889;DHT22;25563;50.844;4.308;2024-01-25T02:09:53;9.50;99.90
39889;DHT22;25563;50.844;4.308;2024-01-25T02:12:19;9.50;99.90
39889;DHT22;25563;50.844;4.308;2024-01-25T02:14:45;8.80;99.90
39889;DHT22;25563;50.844;4.308;2024-01-25T02:17:11;9.70;99.90
39889;DHT22;25563;50.844;4.308;2024-01-25T02:19:37;9.80;99.90
39889;DHT22;25563;50.844;4.308;2024-01-25T02:22:04;8.20;99.90
39889;DHT22;25563;50.844;4.308;2024-01-25T02:24:30;9.70;99.90
39889;DHT22;25563;50.844;4.308;2024-01-25T02:26:56;9.60;99.90
39889;DHT22;25563;50.844;4.308;2024-01-25T02:29:21;9.60;99.90
39889;DHT22;25563;50.844;4.308;2024-01-25T02:31:47;9.50;99.90
39889;DHT22;25563;50.844;4.308;2024-01-25T02:34:13;9.30;99.90
39889;DHT22;25563;50.844;4.308;2024-01-25T02:36:41;9.90;99.90
39889;DHT22;25563;50.844;4.308;2024-01-25T02:39:07;9.90;99.90
39889;DHT22;25563;50.844;4.308;2024-01-25T02:41:33;9.70;99.90
39889;DHT22;25563;50.844;4.308;2024-01-25T02:44:01;9.50;99.90
39889;DHT22;25563;50.844;4.308;2024-01-25T02:46:27;9.30;99.90
39889;DHT22;25563;50.844;4.308;2024-01-25T02:48:52;9.40;99.90
39889;DHT22;25563;50.844;4.308;2024-01-25T02:51:18;10.30;99.90
39889;DHT22;25563;50.844;4.308;2024-01-25T02:53:44;9.50;99.90
39889;DHT22;25563;50.844;4.308;2024-01-25T02:56:09;9.40;99.90
39889;DHT22;25563;50.844;4.308;2024-01-25T02:58:35;9.10;99.90
39889;DHT22;25563;50.844;4.308;2024-01-25T03:01:01;8.90;99.90
39889;DHT22;25563;50.844;4.308;2024-01-25T03:03:26;9.00;99.90
39889;DHT22;25563;50.844;4.308;2024-01-25T03:05:52;9.10;99.90
39889;DHT22;25563;50.844;4.308;2024-01-25T03:08:18;9.30;99.90
39889;DHT22;25563;50.844;4.308;2024-01-25T03:10:43;9.20;99.90
39889;DHT22;25563;50.844;4.308;2024-01-25T03:13:09;9.00;99.90
39889;DHT22;25563;50.844;4.308;2024-01-25T03:15:35;8.20;99.90
39889;DHT22;25563;50.844;4.308;2024-01-25T03:18:08;8.90;99.90
39889;DHT22;25563;50.844;4.308;2024-01-25T03:20:34;9.10;99.90
39889;DHT22;25563;50.844;4.308;2024-01-25T03:23:00;9.20;99.90
39889;DHT22;25563;50.844;4.308;2024-01-25T03:25:25;9.10;99.90
39889;DHT22;25563;50.844;4.308;2024-01-25T03:27:51;8.80;99.90
39889;DHT22;25563;50.844;4.308;2024-01-25T03:30:18;8.70;99.90
39889;DHT22;25563;50.844;4.308;2024-01-25T03:32:43;8.70;99.90
39889;DHT22;25563;50.844;4.308;2024-01-25T03:35:09;8.90;99.90
39889;DHT22;25563;50.844;4.308;2024-01-25T03:37:35;9.00;99.90
39889;DHT22;25563;50.844;4.308;2024-01-25T03:40:00;7.50;99.90
39889;DHT22;25563;50.844;4.308;2024-01-25T03:42:26;8.70;99.90
39889;DHT22;25563;50.844;4.308;2024-01-25T03:44:52;8.40;99.90
39889;DHT22;25563;50.844;4.308;2024-01-25T03:47:18;8.50;99.90
39889;DHT22;25563;50.844;4.308;2024-01-25T03:49:43;7.30;99.90
39889;DHT22;25563;50.844;4.308;2024-01-25T03:52:09;8.70;99.90
39889;DHT22;25563;50.844;4.308;2024-01-25T03:54:36;8.50;99.90
39889;DHT22;25563;50.844;4.308;2024-01-25T03:57:01;9.10;99.90
39889;DHT22;25563;50.844;4.308;2024-01-25T03:59:28;8.90;99.90
39889;DHT22;25563;50.844;4.308;2024-01-25T04:01:55;7.60;99.90
39889;DHT22;25563;50.844;4.308;2024-01-25T04:04:23;8.80;99.90
39889;DHT22;25563;50.844;4.308;2024-01-25T04:06:48;8.60;99.90
39889;DHT22;25563;50.844;4.308;2024-01-25T04:09:15;7.70;99.90
39889;DHT22;25563;50.844;4.308;2024-01-25T04:11:41;8.70;99.90
39889;DHT22;25563;50.844;4.308;2024-01-25T04:14:07;8.60;99.90
39889;DHT22;25563;50.844;4.308;2024-01-25T04:16:33;8.50;99.90
39889;DHT22;25563;50.844;4.308;2024-01-25T04:18:59;8.50;99.90
39889;DHT22;25563;50.844;4.308;2024-01-25T04:21:24;7.90;99.90
39889;DHT22;25563;50.844;4.308;2024-01-25T04:23:50;8.70;99.90
39889;DHT22;25563;50.844;4.308;2024-01-25T04:26:16;8.70;99.90
39889;DHT22;25563;50.844;4.308;2024-01-25T04:28:42;8.40;99.90
39889;DHT22;25563;50.844;4.308;2024-01-25T04:31:07;8.30;99.90
39889;DHT22;25563;50.844;4.308;2024-01-25T04:33:33;8.30;99.90
39889;DHT22;25563;50.844;4.308;2024-01-25T04:35:59;8.20;99.90
39889;DHT22;25563;50.844;4.308;2024-01-25T04:38:27;8.40;99.90
39889;DHT22;25563;50.844;4.308;2024-01-25T04:40:58;7.90;99.90
39889;DHT22;25563;50.844;4.308;2024-01-25T04:43:25;8.30;99.90
39889;DHT22;25563;50.844;4.308;2024-01-25T04:45:53;8.40;99.90
39889;DHT22;25563;50.844;4.308;2024-01-25T04:48:18;8.50;99.90
39889;DHT22;25563;50.844;4.308;2024-01-25T04:50:44;8.60;99.90
39889;DHT22;25563;50.844;4.308;2024-01-25T04:53:13;8.60;99.90
39889;DHT22;25563;50.844;4.308;2024-01-25T04:55:39;7.30;99.90
39889;DHT22;25563;50.844;4.308;2024-01-25T04:58:04;8.70;99.90
39889;DHT22;25563;50.844;4.308;2024-01-25T05:00:31;8.60;99.90
39889;DHT22;25563;50.844;4.308;2024-01-25T05:02:57;8.40;99.90
39889;DHT22;25563;50.844;4.308;2024-01-25T05:05:23;8.40;99.90
39889;DHT22;25563;50.844;4.308;2024-01-25T05:07:48;8.40;99.90
39889;DHT22;25563;50.844;4.308;2024-01-25T05:10:14;8.50;99.90
39889;DHT22;25563;50.844;4.308;2024-01-25T05:12:43;7.60;99.90
39889;DHT22;25563;50.844;4.308;2024-01-25T05:15:09;7.30;99.90
39889;DHT22;25563;50.844;4.308;2024-01-25T05:17:35;8.50;99.90
39889;DHT22;25563;50.844;4.308;2024-01-25T05:20:01;8.80;99.90
39889;DHT22;25563;50.844;4.308;2024-01-25T05:22:28;8.90;99.90
39889;DHT22;25563;50.844;4.308;2024-01-25T05:24:56;8.80;99.90
39889;DHT22;25563;50.844;4.308;2024-01-25T05:27:22;8.60;99.90
39889;DHT22;25563;50.844;4.308;2024-01-25T05:29:48;8.50;99.90
39889;DHT22;25563;50.844;4.308;2024-01-25T05:32:14;8.40;99.90
39889;DHT22;25563;50.844;4.308;2024-01-25T05:34:40;8.40;99.90
39889;DHT22;25563;50.844;4.308;2024-01-25T05:37:05;8.30;99.90
39889;DHT22;25563;50.844;4.308;2024-01-25T05:39:32;8.30;99.90
39889;DHT22;25563;50.844;4.308;2024-01-25T05:41:58;8.30;99.90
39889;DHT22;25563;50.844;4.308;2024-01-25T05:44:23;8.40;99.90
39889;DHT22;25563;50.844;4.308;2024-01-25T05:46:49;8.50;99.90
39889;DHT22;25563;50.844;4.308;2024-01-25T05:49:14;8.60;99.90
39889;DHT22;25563;50.844;4.308;2024-01-25T05:51:42;8.80;99.90
39889;DHT22;25563;50.844;4.308;2024-01-25T05:54:08;9.00;99.90
39889;DHT22;25563;50.844;4.308;2024-01-25T05:56:33;8.90;99.90
39889;DHT22;25563;50.844;4.308;2024-01-25T05:59:00;8.80;99.90
39889;DHT22;25563;50.844;4.308;2024-01-25T06:01:26;8.50;99.90
39889;DHT22;25563;50.844;4.308;2024-01-25T06:03:52;8.60;99.90
39889;DHT22;25563;50.844;4.308;2024-01-25T06:06:17;8.60;99.90
39889;DHT22;25563;50.844;4.308;2024-01-25T06:08:44;8.70;99.90
39889;DHT22;25563;50.844;4.308;2024-01-25T06:11:11;8.50;99.90
39889;DHT22;25563;50.844;4.308;2024-01-25T06:13:37;7.80;99.90
39889;DHT22;25563;50.844;4.308;2024-01-25T06:16:02;8.30;99.90
39889;DHT22;25563;50.844;4.308;2024-01-25T06:18:29;8.30;99.90
39889;DHT22;25563;50.844;4.308;2024-01-25T06:20:57;8.50;99.90
39889;DHT22;25563;50.844;4.308;2024-01-25T06:23:22;8.80;99.90
39889;DHT22;25563;50.844;4.308;2024-01-25T06:25:49;9.00;99.90
39889;DHT22;25563;50.844;4.308;2024-01-25T06:28:15;8.80;99.90
39889;DHT22;25563;50.844;4.308;2024-01-25T06:30:41;8.80;99.90
39889;DHT22;25563;50.844;4.308;2024-01-25T06:33:06;8.80;99.90
39889;DHT22;25563;50.844;4.308;2024-01-25T06:35:33;8.80;99.90
39889;DHT22;25563;50.844;4.308;2024-01-25T06:37:59;8.80;99.90
39889;DHT22;25563;50.844;4.308;2024-01-25T06:40:27;8.10;99.90
39889;DHT22;25563;50.844;4.308;2024-01-25T06:42:53;8.90;99.90
39889;DHT22;25563;50.844;4.308;2024-01-25T06:45:19;9.00;99.90
39889;DHT22;25563;50.844;4.308;2024-01-25T06:47:44;8.10;99.90
39889;DHT22;25563;50.844;4.308;2024-01-25T06:50:10;9.30;99.90
39889;DHT22;25563;50.844;4.308;2024-01-25T06:52:37;9.20;99.90
39889;DHT22;25563;50.844;4.308;2024-01-25T06:55:03;9.10;99.90
39889;DHT22;25563;50.844;4.308;2024-01-25T06:57:31;9.10;99.90
39889;DHT22;25563;50.844;4.308;2024-01-25T06:59:57;9.00;99.90
39889;DHT22;25563;50.844;4.308;2024-01-25T07:02:22;8.90;99.90
39889;DHT22;25563;50.844;4.308;2024-01-25T07:04:48;8.90;99.90
39889;DHT22;25563;50.844;4.308;2024-01-25T07:07:14;9.00;99.90
39889;DHT22;25563;50.844;4.308;2024-01-25T07:09:42;8.90;99.90
39889;DHT22;25563;50.844;4.308;2024-01-25T07:12:08;9.30;99.90
39889;DHT22;25563;50.844;4.308;2024-01-25T07:14:34;8.40;99.90
39889;DHT22;25563;50.844;4.308;2024-01-25T07:16:59;8.90;99.90
39889;DHT22;25563;50.844;4.308;2024-01-25T07:22:18;9.10;99.90
39889;DHT22;25563;50.844;4.308;2024-01-25T07:24:44;9.20;99.90
39889;DHT22;25563;50.844;4.308;2024-01-25T07:27:09;9.10;99.90
39889;DHT22;25563;50.844;4.308;2024-01-25T07:29:36;9.00;99.90
39889;DHT22;25563;50.844;4.308;2024-01-25T07:32:02;9.90;99.90
39889;DHT22;25563;50.844;4.308;2024-01-25T07:34:28;9.20;99.90
39889;DHT22;25563;50.844;4.308;2024-01-25T07:36:53;9.20;99.90
39889;DHT22;25563;50.844;4.308;2024-01-25T07:39:21;9.20;99.90
39889;DHT22;25563;50.844;4.308;2024-01-25T07:41:47;8.00;99.90
39889;DHT22;25563;50.844;4.308;2024-01-25T07:44:13;8.40;99.90
39889;DHT22;25563;50.844;4.308;2024-01-25T07:46:39;9.30;99.90
39889;DHT22;25563;50.844;4.308;2024-01-25T07:49:04;9.20;99.90
39889;DHT22;25563;50.844;4.308;2024-01-25T07:51:30;9.20;99.90
39889;DHT22;25563;50.844;4.308;2024-01-25T07:53:59;9.20;99.90
39889;DHT22;25563;50.844;4.308;2024-01-25T07:56:24;9.20;99.90
39889;DHT22;25563;50.844;4.308;2024-01-25T07:58:51;9.40;99.90
39889;DHT22;25563;50.844;4.308;2024-01-25T08:01:17;9.30;99.90
39889;DHT22;25563;50.844;4.308;2024-01-25T08:03:43;9.40;99.90
39889;DHT22;25563;50.844;4.308;2024-01-25T08:06:08;9.40;99.90
39889;DHT22;25563;50.844;4.308;2024-01-25T08:08:34;9.50;99.90
39889;DHT22;25563;50.844;4.308;2024-01-25T08:11:00;9.60;99.90
39889;DHT22;25563;50.844;4.308;2024-01-25T08:13:25;9.90;99.90
39889;DHT22;25563;50.844;4.308;2024-01-25T08:15:53;9.80;99.90
39889;DHT22;25563;50.844;4.308;2024-01-25T08:18:19;9.80;99.90
39889;DHT22;25563;50.844;4.308;2024-01-25T08:20:45;9.70;99.90
39889;DHT22;25563;50.844;4.308;2024-01-25T08:23:10;9.60;99.90
39889;DHT22;25563;50.844;4.308;2024-01-25T08:25:36;9.60;99.90
39889;DHT22;25563;50.844;4.308;2024-01-25T08:28:02;9.60;99.90
39889;DHT22;25563;50.844;4.308;2024-01-25T08:30:28;9.80;99.90
39889;DHT22;25563;50.844;4.308;2024-01-25T08:32:53;9.90;99.90
39889;DHT22;25563;50.844;4.308;2024-01-25T08:35:19;10.00;99.90
39889;DHT22;25563;50.844;4.308;2024-01-25T08:37:45;9.90;99.90
39889;DHT22;25563;50.844;4.308;2024-01-25T08:40:12;9.80;99.90
39889;DHT22;25563;50.844;4.308;2024-01-25T08:42:38;9.80;99.90
39889;DHT22;25563;50.844;4.308;2024-01-25T08:45:04;9.90;99.90
39889;DHT22;25563;50.844;4.308;2024-01-25T08:47:32;9.90;99.90
39889;DHT22;25563;50.844;4.308;2024-01-25T08:49:58;9.90;99.90
39889;DHT22;25563;50.844;4.308;2024-01-25T08:52:23;10.00;99.90
39889;DHT22;25563;50.844;4.308;2024-01-25T08:54:50;10.10;99.90
39889;DHT22;25563;50.844;4.308;2024-01-25T08:57:16;9.90;99.90
39889;DHT22;25563;50.844;4.308;2024-01-25T08:59:42;10.00;99.90
39889;DHT22;25563;50.844;4.308;2024-01-25T09:02:09;10.00;99.90
39889;DHT22;25563;50.844;4.308;2024-01-25T09:04:34;10.10;99.90
39889;DHT22;25563;50.844;4.308;2024-01-25T09:07:00;10.30;99.90
39889;DHT22;25563;50.844;4.308;2024-01-25T09:09:26;10.50;99.90
39889;DHT22;25563;50.844;4.308;2024-01-25T09:11:52;10.60;99.90
39889;DHT22;25563;50.844;4.308;2024-01-25T09:14:19;10.40;99.90
39889;DHT22;25563;50.844;4.308;2024-01-25T09:16:44;10.40;99.90
39889;DHT22;25563;50.844;4.308;2024-01-25T09:19:11;10.60;99.90
39889;DHT22;25563;50.844;4.308;2024-01-25T09:21:39;10.60;99.90
39889;DHT22;25563;50.844;4.308;2024-01-25T09:24:05;9.70;99.90
39889;DHT22;25563;50.844;4.308;2024-01-25T09:26:32;10.70;99.90
39889;DHT22;25563;50.844;4.308;2024-01-25T09:28:57;10.70;99.90
39889;DHT22;25563;50.844;4.308;2024-01-25T09:31:23;10.60;99.90
39889;DHT22;25563;50.844;4.308;2024-01-25T09:33:49;10.50;99.90
39889;DHT22;25563;50.844;4.308;2024-01-25T09:36:18;10.50;99.90
39889;DHT22;25563;50.844;4.308;2024-01-25T09:38:45;10.50;99.90
39889;DHT22;25563;50.844;4.308;2024-01-25T09:41:10;10.60;99.90
39889;DHT22;25563;50.844;4.308;2024-01-25T09:43:37;10.70;99.90
39889;DHT22;25563;50.844;4.308;2024-01-25T09:46:03;10.80;99.90
39889;DHT22;25563;50.844;4.308;2024-01-25T09:48:30;11.60;99.90
39889;DHT22;25563;50.844;4.308;2024-01-25T09:50:56;11.10;99.90
39889;DHT22;25563;50.844;4.308;2024-01-25T09:53:24;11.30;99.90
39889;DHT22;25563;50.844;4.308;2024-01-25T09:56:06;11.40;99.90
39889;DHT22;25563;50.844;4.308;2024-01-25T10:01:05;11.40;99.90
39889;DHT22;25563;50.844;4.308;2024-01-25T10:03:30;11.50;99.90
39889;DHT22;25563;50.844;4.308;2024-01-25T10:05:56;11.40;99.90
39889;DHT22;25563;50.844;4.308;2024-01-25T10:08:22;11.40;99.90
39889;DHT22;25563;50.844;4.308;2024-01-25T10:10:49;11.40;99.90
39889;DHT22;25563;50.844;4.308;2024-01-25T10:13:19;11.30;99.90
39889;DHT22;25563;50.844;4.308;2024-01-25T10:15:45;11.40;99.90
39889;DHT22;25563;50.844;4.308;2024-01-25T10:18:13;11.50;99.90
39889;DHT22;25563;50.844;4.308;2024-01-25T10:20:39;11.50;99.90
39889;DHT22;25563;50.844;4.308;2024-01-25T10:23:06;11.30;99.90
39889;DHT22;25563;50.844;4.308;2024-01-25T10:25:37;11.40;99.90
39889;DHT22;25563;50.844;4.308;2024-01-25T10:28:06;11.40;99.90
39889;DHT22;25563;50.844;4.308;2024-01-25T10:30:34;11.50;99.90
39889;DHT22;25563;50.844;4.308;2024-01-25T10:33:00;11.70;99.90
39889;DHT22;25563;50.844;4.308;2024-01-25T10:35:26;11.60;99.90
39889;DHT22;25563;50.844;4.308;2024-01-25T10:37:52;11.60;99.90
39889;DHT22;25563;50.844;4.308;2024-01-25T10:40:20;11.60;99.90
39889;DHT22;25563;50.844;4.308;2024-01-25T10:42:46;11.70;99.90
39889;DHT22;25563;50.844;4.308;2024-01-25T10:45:12;11.80;99.90
39889;DHT22;25563;50.844;4.308;2024-01-25T10:47:38;12.00;99.90
39889;DHT22;25563;50.844;4.308;2024-01-25T10:50:07;12.10;99.90
39889;DHT22;25563;50.844;4.308;2024-01-25T10:52:37;12.30;99.90
39889;DHT22;25563;50.844;4.308;2024-01-25T10:55:04;12.20;99.90
39889;DHT22;25563;50.844;4.308;2024-01-25T10:57:37;12.30;99.90
39889;DHT22;25563;50.844;4.308;2024-01-25T11:00:09;12.30;99.90
39889;DHT22;25563;50.844;4.308;2024-01-25T11:02:35;12.20;99.90
39889;DHT22;25563;50.844;4.308;2024-01-25T11:05:01;12.10;99.90
39889;DHT22;25563;50.844;4.308;2024-01-25T11:07:28;12.20;99.90
39889;DHT22;25563;50.844;4.308;2024-01-25T11:09:56;11.80;99.90
39889;DHT22;25563;50.844;4.308;2024-01-25T11:12:22;12.20;99.90
39889;DHT22;25563;50.844;4.308;2024-01-25T11:14:54;12.10;99.90
39889;DHT22;25563;50.844;4.308;2024-01-25T11:17:21;12.10;99.90
39889;DHT22;25563;50.844;4.308;2024-01-25T11:19:51;12.10;99.90
39889;DHT22;25563;50.844;4.308;2024-01-25T11:22:16;12.00;99.90
39889;DHT22;25563;50.844;4.308;2024-01-25T11:24:44;12.10;99.90
39889;DHT22;25563;50.844;4.308;2024-01-25T11:27:10;12.10;99.90
39889;DHT22;25563;50.844;4.308;2024-01-25T11:29:37;12.20;99.90
39889;DHT22;25563;50.844;4.308;2024-01-25T11:32:05;12.30;99.90
39889;DHT22;25563;50.844;4.308;2024-01-25T11:34:31;12.60;99.90
39889;DHT22;25563;50.844;4.308;2024-01-25T11:36:58;12.50;99.90
39889;DHT22;25563;50.844;4.308;2024-01-25T11:39:24;12.30;99.90
39889;DHT22;25563;50.844;4.308;2024-01-25T11:41:50;12.30;99.90
39889;DHT22;25563;50.844;4.308;2024-01-25T11:44:18;12.40;99.90
39889;DHT22;25563;50.844;4.308;2024-01-25T11:46:44;12.30;99.90
39889;DHT22;25563;50.844;4.308;2024-01-25T11:49:10;12.40;99.90
39889;DHT22;25563;50.844;4.308;2024-01-25T11:51:36;12.50;99.90
39889;DHT22;25563;50.844;4.308;2024-01-25T11:54:01;12.60;99.90
39889;DHT22;25563;50.844;4.308;2024-01-25T11:56:33;12.70;99.90
39889;DHT22;25563;50.844;4.308;2024-01-25T11:58:59;12.70;99.90
39889;DHT22;25563;50.844;4.308;2024-01-25T12:01:26;12.80;99.90
39889;DHT22;25563;50.844;4.308;2024-01-25T12:03:53;12.70;99.90
39889;DHT22;25563;50.844;4.308;2024-01-25T12:06:18;12.60;99.90
39889;DHT22;25563;50.844;4.308;2024-01-25T12:08:44;12.50;99.90
39889;DHT22;25563;50.844;4.308;2024-01-25T12:11:10;12.50;99.90
39889;DHT22;25563;50.844;4.308;2024-01-25T12:13:41;12.40;99.90
39889;DHT22;25563;50.844;4.308;2024-01-25T12:16:07;12.40;99.90
39889;DHT22;25563;50.844;4.308;2024-01-25T12:18:38;12.30;99.90
39889;DHT22;25563;50.844;4.308;2024-01-25T12:21:04;12.30;99.90
39889;DHT22;25563;50.844;4.308;2024-01-25T12:23:37;12.30;99.90
39889;DHT22;25563;50.844;4.308;2024-01-25T12:26:06;12.60;99.90
39889;DHT22;25563;50.844;4.308;2024-01-25T12:28:32;12.30;99.90
39889;DHT22;25563;50.844;4.308;2024-01-25T12:30:58;12.30;99.90
39889;DHT22;25563;50.844;4.308;2024-01-25T12:33:27;12.50;99.90
39889;DHT22;25563;50.844;4.308;2024-01-25T12:35:52;12.30;99.90
39889;DHT22;25563;50.844;4.308;2024-01-25T12:38:20;12.20;99.90
39889;DHT22;25563;50.844;4.308;2024-01-25T12:40:46;12.20;99.90
39889;DHT22;25563;50.844;4.308;2024-01-25T12:43:13;12.00;99.90
39889;DHT22;25563;50.844;4.308;2024-01-25T12:45:39;11.90;99.90
39889;DHT22;25563;50.844;4.308;2024-01-25T12:48:05;11.90;99.90
39889;DHT22;25563;50.844;4.308;2024-01-25T12:50:34;11.90;99.90
39889;DHT22;25563;50.844;4.308;2024-01-25T12:53:00;11.00;99.90
39889;DHT22;25563;50.844;4.308;2024-01-25T12:55:27;11.80;99.90
39889;DHT22;25563;50.844;4.308;2024-01-25T12:57:53;12.20;99.90
39889;DHT22;25563;50.844;4.308;2024-01-25T13:00:19;12.10;99.90
39889;DHT22;25563;50.844;4.308;2024-01-25T13:02:46;12.00;99.90
39889;DHT22;25563;50.844;4.308;2024-01-25T13:05:14;12.20;99.90
39889;DHT22;25563;50.844;4.308;2024-01-25T13:07:40;12.10;99.90
39889;DHT22;25563;50.844;4.308;2024-01-25T13:10:08;12.00;99.90
39889;DHT22;25563;50.844;4.308;2024-01-25T13:12:34;12.20;99.90
39889;DHT22;25563;50.844;4.308;2024-01-25T13:15:00;12.10;99.90
39889;DHT22;25563;50.844;4.308;2024-01-25T13:17:26;12.10;99.90
39889;DHT22;25563;50.844;4.308;2024-01-25T13:19:55;12.10;99.90
39889;DHT22;25563;50.844;4.308;2024-01-25T13:22:25;13.10;99.90
39889;DHT22;25563;50.844;4.308;2024-01-25T13:24:51;12.50;99.90
39889;DHT22;25563;50.844;4.308;2024-01-25T13:27:17;12.60;99.90
39889;DHT22;25563;50.844;4.308;2024-01-25T13:29:42;12.40;99.90
39889;DHT22;25563;50.844;4.308;2024-01-25T13:32:08;12.60;99.90
39889;DHT22;25563;50.844;4.308;2024-01-25T13:34:34;12.70;99.90
39889;DHT22;25563;50.844;4.308;2024-01-25T13:37:01;12.60;99.90
39889;DHT22;25563;50.844;4.308;2024-01-25T13:39:27;12.50;99.90
39889;DHT22;25563;50.844;4.308;2024-01-25T13:41:55;12.40;99.90
39889;DHT22;25563;50.844;4.308;2024-01-25T13:44:22;12.40;99.90
39889;DHT22;25563;50.844;4.308;2024-01-25T13:46:48;12.40;99.90
39889;DHT22;25563;50.844;4.308;2024-01-25T13:49:13;12.50;99.90
39889;DHT22;25563;50.844;4.308;2024-01-25T13:51:44;12.40;99.90
39889;DHT22;25563;50.844;4.308;2024-01-25T13:54:10;12.40;99.90
39889;DHT22;25563;50.844;4.308;2024-01-25T13:56:36;12.50;99.90
39889;DHT22;25563;50.844;4.308;2024-01-25T13:59:06;12.60;99.90
39889;DHT22;25563;50.844;4.308;2024-01-25T14:01:33;12.60;99.90
39889;DHT22;25563;50.844;4.308;2024-01-25T14:03:59;12.70;99.90
39889;DHT22;25563;50.844;4.308;2024-01-25T14:06:25;12.80;99.90
39889;DHT22;25563;50.844;4.308;2024-01-25T14:08:51;12.70;99.90
39889;DHT22;25563;50.844;4.308;2024-01-25T14:11:17;12.60;99.90
39889;DHT22;25563;50.844;4.308;2024-01-25T14:13:42;11.30;99.90
39889;DHT22;25563;50.844;4.308;2024-01-25T14:16:08;12.70;99.90
39889;DHT22;25563;50.844;4.308;2024-01-25T14:18:38;12.90;99.90
39889;DHT22;25563;50.844;4.308;2024-01-25T14:21:05;12.90;99.90
39889;DHT22;25563;50.844;4.308;2024-01-25T14:23:31;11.40;99.90
39889;DHT22;25563;50.844;4.308;2024-01-25T14:25:57;12.90;99.90
39889;DHT22;25563;50.844;4.308;2024-01-25T14:28:23;12.80;99.90
39889;DHT22;25563;50.844;4.308;2024-01-25T14:30:48;12.70;99.90
39889;DHT22;25563;50.844;4.308;2024-01-25T14:33:14;13.00;99.90
39889;DHT22;25563;50.844;4.308;2024-01-25T14:35:41;12.80;99.90
39889;DHT22;25563;50.844;4.308;2024-01-25T14:38:07;12.90;99.90
39889;DHT22;25563;50.844;4.308;2024-01-25T14:40:35;12.60;99.90
39889;DHT22;25563;50.844;4.308;2024-01-25T14:43:02;11.20;99.90
39889;DHT22;25563;50.844;4.308;2024-01-25T14:45:28;12.80;99.90
39889;DHT22;25563;50.844;4.308;2024-01-25T14:47:58;12.80;99.90
39889;DHT22;25563;50.844;4.308;2024-01-25T14:50:24;12.80;99.90
39889;DHT22;25563;50.844;4.308;2024-01-25T14:52:49;13.00;99.90
39889;DHT22;25563;50.844;4.308;2024-01-25T14:55:15;12.90;99.90
39889;DHT22;25563;50.844;4.308;2024-01-25T14:57:41;12.80;99.90
39889;DHT22;25563;50.844;4.308;2024-01-25T15:00:07;12.90;99.90
39889;DHT22;25563;50.844;4.308;2024-01-25T15:02:36;12.90;99.90
39889;DHT22;25563;50.844;4.308;2024-01-25T15:05:02;12.80;99.90
39889;DHT22;25563;50.844;4.308;2024-01-25T15:07:28;12.70;99.90
39889;DHT22;25563;50.844;4.308;2024-01-25T15:09:54;12.70;99.90
39889;DHT22;25563;50.844;4.308;2024-01-25T15:12:20;12.80;99.90
39889;DHT22;25563;50.844;4.308;2024-01-25T15:14:46;12.90;99.90
39889;DHT22;25563;50.844;4.308;2024-01-25T15:17:11;11.50;99.90
39889;DHT22;25563;50.844;4.308;2024-01-25T15:19:38;12.70;99.90
39889;DHT22;25563;50.844;4.308;2024-01-25T15:22:04;12.60;99.90
39889;DHT22;25563;50.844;4.308;2024-01-25T15:24:33;11.30;99.90
39889;DHT22;25563;50.844;4.308;2024-01-25T15:27:07;12.80;99.90
39889;DHT22;25563;50.844;4.308;2024-01-25T15:29:32;12.70;99.90
39889;DHT22;25563;50.844;4.308;2024-01-25T15:31:58;12.80;99.90
39889;DHT22;25563;50.844;4.308;2024-01-25T15:34:24;12.70;99.90
39889;DHT22;25563;50.844;4.308;2024-01-25T15:36:50;12.80;99.90